createdAt,value
2022-11-05T00:00:36.495Z,18.00
2022-11-05T00:01:36.500Z,15.50
2022-11-05T00:02:36.465Z,13.40
2022-11-05T00:03:36.535Z,15.90
2022-11-05T00:04:36.474Z,12.90
2022-11-05T00:05:36.416Z,19.60
2022-11-05T00:06:36.414Z,18.60
2022-11-05T00:07:36.404Z,15.20
2022-11-05T00:08:36.373Z,16.10
2022-11-05T00:09:36.373Z,22.10
2022-11-05T00:10:36.365Z,13.70
2022-11-05T00:11:36.332Z,14.90
2022-11-05T00:12:36.335Z,12.30
2022-11-05T00:13:36.312Z,12.20
2022-11-05T00:14:36.303Z,14.10
2022-11-05T00:15:36.351Z,13.60
2022-11-05T00:16:36.280Z,22.60
2022-11-05T00:17:36.262Z,14.40
2022-11-05T00:18:36.252Z,14.90
2022-11-05T00:19:36.241Z,19.10
2022-11-05T00:20:36.240Z,18.20
2022-11-05T00:21:36.223Z,17.40
2022-11-05T00:22:36.191Z,13.30
2022-11-05T00:23:36.184Z,15.10
2022-11-05T00:24:36.169Z,15.00
2022-11-05T00:25:36.189Z,14.70
2022-11-05T00:26:36.140Z,18.50
2022-11-05T00:27:36.141Z,14.20
2022-11-05T00:28:36.120Z,15.20
2022-11-05T00:29:36.110Z,14.20
2022-11-05T00:30:36.100Z,12.10
2022-11-05T00:31:36.081Z,13.50
2022-11-05T00:32:36.076Z,14.10
2022-11-05T00:33:36.050Z,14.10
2022-11-05T00:34:36.040Z,13.10
2022-11-05T00:35:36.052Z,14.40
2022-11-05T00:36:36.017Z,16.40
2022-11-05T00:37:36.005Z,14.80
2022-11-05T00:38:35.987Z,13.40
2022-11-05T00:39:35.970Z,16.10
2022-11-05T00:40:35.957Z,12.60
2022-11-05T00:41:35.956Z,11.80
2022-11-05T00:42:35.974Z,16.80
2022-11-05T00:43:35.926Z,15.10
2022-11-05T00:44:35.908Z,11.70
2022-11-05T00:45:35.896Z,13.30
2022-11-05T00:46:35.889Z,10.20
2022-11-05T00:47:35.877Z,11.10
2022-11-05T00:48:35.853Z,15.70
2022-11-05T00:49:35.845Z,12.70
2022-11-05T00:50:35.825Z,13.50
2022-11-05T00:51:35.829Z,12.10
2022-11-05T00:52:35.817Z,13.60
2022-11-05T00:53:35.794Z,14.10
2022-11-05T00:54:35.784Z,13.30
2022-11-05T00:55:35.763Z,12.90
2022-11-05T00:56:35.765Z,13.80
2022-11-05T00:57:35.762Z,13.70
2022-11-05T00:58:35.743Z,14.20
2022-11-05T00:59:35.702Z,15.90
2022-11-05T01:00:35.703Z,16.60
2022-11-05T01:01:35.768Z,12.40
2022-11-05T01:02:35.794Z,14.70
2022-11-05T01:03:35.661Z,12.60
2022-11-05T01:04:35.643Z,18.40
2022-11-05T01:05:35.657Z,16.00
2022-11-05T01:06:35.623Z,13.10
2022-11-05T01:07:35.622Z,13.50
2022-11-05T01:08:35.600Z,14.10
2022-11-05T01:09:35.592Z,13.50
2022-11-05T01:10:35.571Z,17.60
2022-11-05T01:11:35.550Z,13.30
2022-11-05T01:12:35.561Z,14.20
2022-11-05T01:13:35.521Z,11.20
2022-11-05T01:14:35.510Z,16.60
2022-11-05T01:15:35.489Z,15.20
2022-11-05T01:16:35.498Z,16.70
2022-11-05T01:17:35.481Z,14.00
2022-11-05T01:18:35.519Z,15.40
2022-11-05T01:19:35.440Z,18.20
2022-11-05T01:20:35.431Z,15.20
2022-11-05T01:21:35.427Z,14.10
2022-11-05T01:22:35.420Z,19.20
2022-11-05T01:23:35.409Z,14.20
2022-11-05T01:24:35.388Z,13.70
2022-11-05T01:25:35.368Z,12.00
2022-11-05T01:26:35.361Z,17.80
2022-11-05T01:27:35.338Z,16.30
2022-11-05T01:28:35.413Z,15.40
2022-11-05T01:29:35.327Z,14.10
2022-11-05T01:30:35.308Z,13.10
2022-11-05T01:31:35.309Z,15.40
2022-11-05T01:32:35.297Z,15.60
2022-11-05T01:33:35.266Z,12.70
2022-11-05T01:34:35.246Z,19.00
2022-11-05T01:35:35.246Z,13.10
2022-11-05T01:36:35.235Z,14.80
2022-11-05T01:37:35.210Z,16.10
2022-11-05T01:38:35.209Z,16.70
2022-11-05T01:39:35.187Z,15.90
2022-11-05T01:40:35.184Z,19.40
2022-11-05T01:41:35.152Z,17.00
2022-11-05T01:42:35.147Z,14.30
2022-11-05T01:43:35.126Z,17.80
2022-11-05T01:44:35.146Z,15.90
2022-11-05T01:45:35.118Z,17.10
2022-11-05T01:46:35.095Z,16.50
2022-11-05T01:47:35.075Z,15.50
2022-11-05T01:48:35.076Z,15.30
2022-11-05T01:49:35.045Z,20.20
2022-11-05T01:50:35.057Z,21.20
2022-11-05T01:51:35.013Z,21.60
2022-11-05T01:52:35.013Z,18.00
2022-11-05T01:53:35.002Z,18.60
2022-11-05T01:54:34.992Z,17.60
2022-11-05T01:55:34.970Z,20.80
2022-11-05T01:56:34.972Z,17.50
2022-11-05T01:57:34.942Z,17.10
2022-11-05T01:58:34.941Z,16.90
2022-11-05T01:59:34.912Z,18.50
2022-11-05T02:00:34.957Z,17.50
2022-11-05T02:01:34.969Z,21.10
2022-11-05T02:02:34.990Z,18.60
2022-11-05T02:03:34.861Z,19.90
2022-11-05T02:04:34.861Z,18.90
2022-11-05T02:05:34.848Z,18.10
2022-11-05T02:06:34.842Z,21.10
2022-11-05T02:07:34.811Z,20.90
2022-11-05T02:08:34.800Z,21.40
2022-11-05T02:09:34.789Z,21.60
2022-11-05T02:10:34.781Z,23.50
2022-11-05T02:11:34.769Z,17.80
2022-11-05T02:12:34.748Z,17.50
2022-11-05T02:13:34.742Z,19.70
2022-11-05T02:14:34.718Z,19.90
2022-11-05T02:15:34.698Z,17.30
2022-11-05T02:16:34.707Z,17.40
2022-11-05T02:17:34.679Z,21.40
2022-11-05T02:18:34.681Z,21.70
2022-11-05T02:19:34.666Z,18.40
2022-11-05T02:20:34.663Z,18.70
2022-11-05T02:21:34.666Z,18.00
2022-11-05T02:22:34.625Z,18.30
2022-11-05T02:23:34.606Z,25.40
2022-11-05T02:24:34.595Z,21.50
2022-11-05T02:25:34.594Z,20.20
2022-11-05T02:26:34.567Z,19.50
2022-11-05T02:27:34.558Z,21.10
2022-11-05T02:28:34.536Z,19.20
2022-11-05T02:29:34.525Z,19.20
2022-11-05T02:30:34.514Z,23.40
2022-11-05T02:31:34.506Z,18.30
2022-11-05T02:32:34.643Z,18.70
2022-11-05T02:33:34.478Z,19.00
2022-11-05T02:34:34.485Z,17.00
2022-11-05T02:35:34.455Z,19.10
2022-11-05T02:36:34.434Z,16.20
2022-11-05T02:37:34.436Z,19.90
2022-11-05T02:38:34.433Z,21.50
2022-11-05T02:39:34.403Z,19.60
2022-11-05T02:40:34.382Z,21.30
2022-11-05T02:41:34.372Z,22.60
2022-11-05T02:42:34.354Z,19.00
2022-11-05T02:43:34.334Z,26.10
2022-11-05T02:44:34.372Z,21.30
2022-11-05T02:45:34.320Z,17.00
2022-11-05T02:46:34.324Z,23.80
2022-11-05T02:47:34.293Z,19.90
2022-11-05T02:48:34.274Z,21.10
2022-11-05T02:49:34.291Z,23.90
2022-11-05T02:50:34.256Z,21.90
2022-11-05T02:51:34.250Z,20.30
2022-11-05T02:52:34.223Z,18.40
2022-11-05T02:53:34.209Z,20.60
2022-11-05T02:54:34.199Z,17.20
2022-11-05T02:55:34.220Z,24.60
2022-11-05T02:56:34.170Z,20.50
2022-11-05T02:57:34.149Z,19.50
2022-11-05T02:58:34.139Z,17.00
2022-11-05T02:59:34.129Z,21.50
2022-11-05T03:00:34.155Z,21.20
2022-11-05T03:01:34.229Z,16.30
2022-11-05T03:02:34.223Z,23.30
2022-11-05T03:03:34.118Z,15.10
2022-11-05T03:04:34.097Z,23.00
2022-11-05T03:05:34.066Z,20.60
2022-11-05T03:06:34.046Z,16.50
2022-11-05T03:07:34.037Z,18.70
2022-11-05T03:08:34.021Z,17.20
2022-11-05T03:09:33.999Z,23.00
2022-11-05T03:10:33.992Z,19.30
2022-11-05T03:11:33.983Z,20.30
2022-11-05T03:12:33.966Z,20.10
2022-11-05T03:13:33.954Z,22.60
2022-11-05T03:14:33.947Z,20.70
2022-11-05T03:15:33.987Z,22.00
2022-11-05T03:16:33.915Z,19.70
2022-11-05T03:17:33.899Z,19.70
2022-11-05T03:18:33.895Z,19.60
2022-11-05T03:19:33.897Z,17.80
2022-11-05T03:20:33.874Z,20.60
2022-11-05T03:21:33.882Z,20.90
2022-11-05T03:22:33.834Z,20.50
2022-11-05T03:23:33.822Z,26.20
2022-11-05T03:24:33.804Z,19.10
2022-11-05T03:25:33.872Z,19.70
2022-11-05T03:26:33.783Z,20.70
2022-11-05T03:27:33.793Z,20.80
2022-11-05T03:28:33.753Z,20.30
2022-11-05T03:29:33.733Z,15.90
2022-11-05T03:30:33.721Z,23.10
2022-11-05T03:31:33.701Z,23.20
2022-11-05T03:32:33.693Z,19.60
2022-11-05T03:33:33.692Z,18.50
2022-11-05T03:34:33.664Z,19.80
2022-11-05T03:35:33.640Z,18.90
2022-11-05T03:36:33.655Z,15.90
2022-11-05T03:37:33.635Z,18.50
2022-11-05T03:38:33.647Z,18.40
2022-11-05T03:39:33.599Z,17.10
2022-11-05T03:40:33.591Z,20.30
2022-11-05T03:41:33.568Z,18.50
2022-11-05T03:42:33.568Z,17.40
2022-11-05T03:43:33.540Z,21.80
2022-11-05T03:44:33.562Z,16.70
2022-11-05T03:45:33.518Z,17.10
2022-11-05T03:46:33.509Z,21.60
2022-11-05T03:47:33.502Z,19.40
2022-11-05T03:48:33.554Z,16.20
2022-11-05T03:49:33.468Z,19.60
2022-11-05T03:50:38.484Z,18.40
2022-11-05T03:51:34.449Z,19.00
2022-11-05T03:52:33.427Z,19.90
2022-11-05T03:53:33.405Z,21.20
2022-11-05T03:54:33.418Z,15.90
2022-11-05T03:55:33.396Z,19.00
2022-11-05T03:56:33.375Z,16.90
2022-11-05T03:57:33.355Z,20.80
2022-11-05T03:58:33.345Z,19.50
2022-11-05T03:59:33.345Z,21.60
2022-11-05T04:00:33.337Z,20.00
2022-11-05T04:01:33.417Z,15.20
2022-11-05T04:02:33.471Z,20.10
2022-11-05T04:03:33.283Z,18.40
2022-11-05T04:04:33.284Z,17.30
2022-11-05T04:05:33.253Z,17.50
2022-11-05T04:06:33.244Z,16.30
2022-11-05T04:07:33.233Z,19.80
2022-11-05T04:08:33.225Z,16.50
2022-11-05T04:09:33.193Z,18.60
2022-11-05T04:10:33.221Z,14.90
2022-11-05T04:11:33.184Z,16.70
2022-11-05T04:12:33.173Z,13.60
2022-11-05T04:13:33.171Z,16.00
2022-11-05T04:14:33.134Z,17.30
2022-11-05T04:15:33.141Z,20.60
2022-11-05T04:16:33.110Z,16.60
2022-11-05T04:17:33.098Z,20.90
2022-11-05T04:18:33.082Z,21.60
2022-11-05T04:19:33.073Z,18.80
2022-11-05T04:20:33.070Z,17.20
2022-11-05T04:21:33.044Z,19.90
2022-11-05T04:22:33.031Z,22.10
2022-11-05T04:23:33.018Z,20.00
2022-11-05T04:24:32.999Z,22.50
2022-11-05T04:25:33.000Z,19.00
2022-11-05T04:26:32.980Z,18.90
2022-11-05T04:27:32.970Z,19.30
2022-11-05T04:28:32.949Z,20.50
2022-11-05T04:29:32.938Z,17.10
2022-11-05T04:30:32.929Z,18.80
2022-11-05T04:31:32.928Z,20.80
2022-11-05T04:32:32.906Z,20.80
2022-11-05T04:33:32.887Z,17.50
2022-11-05T04:34:32.879Z,17.50
2022-11-05T04:35:32.857Z,20.10
2022-11-05T04:36:32.847Z,20.00
2022-11-05T04:37:32.846Z,24.80
2022-11-05T04:38:32.831Z,20.50
2022-11-05T04:39:32.803Z,22.70
2022-11-05T04:40:32.795Z,19.90
2022-11-05T04:41:32.776Z,22.50
2022-11-05T04:42:32.807Z,26.40
2022-11-05T04:43:32.757Z,22.40
2022-11-05T04:44:32.756Z,20.80
2022-11-05T04:45:32.729Z,26.10
2022-11-05T04:46:32.715Z,18.40
2022-11-05T04:47:32.704Z,21.70
2022-11-05T04:48:32.715Z,25.70
2022-11-05T04:49:32.675Z,24.30
2022-11-05T04:50:32.666Z,22.30
2022-11-05T04:51:32.653Z,27.30
2022-11-05T04:52:32.643Z,27.70
2022-11-05T04:53:32.635Z,32.90
2022-11-05T04:54:32.642Z,25.50
2022-11-05T04:55:32.607Z,24.70
2022-11-05T04:56:32.583Z,23.50
2022-11-05T04:57:32.575Z,26.10
2022-11-05T04:58:32.563Z,29.30
2022-11-05T04:59:32.546Z,24.50
2022-11-05T05:00:32.578Z,24.00
2022-11-05T05:01:32.619Z,25.80
2022-11-05T05:02:32.512Z,24.00
2022-11-05T05:03:32.492Z,25.60
2022-11-05T05:04:32.491Z,27.50
2022-11-05T05:05:32.472Z,26.10
2022-11-05T05:06:32.463Z,26.30
2022-11-05T05:07:32.441Z,29.40
2022-11-05T05:08:32.430Z,25.80
2022-11-05T05:09:32.419Z,26.70
2022-11-05T05:10:32.398Z,22.00
2022-11-05T05:11:32.399Z,26.70
2022-11-05T05:12:32.380Z,24.30
2022-11-05T05:13:32.370Z,26.90
2022-11-05T05:14:32.351Z,23.70
2022-11-05T05:15:32.340Z,21.40
2022-11-05T05:16:32.329Z,24.70
2022-11-05T05:17:32.342Z,25.90
2022-11-05T05:18:32.299Z,26.30
2022-11-05T05:19:32.285Z,24.10
2022-11-05T05:20:32.268Z,22.00
2022-11-05T05:21:32.260Z,25.70
2022-11-05T05:22:32.247Z,27.90
2022-11-05T05:23:32.257Z,27.00
2022-11-05T05:24:32.216Z,25.60
2022-11-05T05:25:32.215Z,24.30
2022-11-05T05:26:32.187Z,24.40
2022-11-05T05:27:32.177Z,24.00
2022-11-05T05:28:32.167Z,29.40
2022-11-05T05:29:32.186Z,22.50
2022-11-05T05:30:32.149Z,25.50
2022-11-05T05:31:32.126Z,21.80
2022-11-05T05:32:32.115Z,23.50
2022-11-05T05:33:32.107Z,22.90
2022-11-05T05:34:32.087Z,19.10
2022-11-05T05:35:32.104Z,23.40
2022-11-05T05:36:32.065Z,19.70
2022-11-05T05:37:32.045Z,24.30
2022-11-05T05:38:32.042Z,24.80
2022-11-05T05:39:32.023Z,20.60
2022-11-05T05:40:32.013Z,20.90
2022-11-05T05:41:32.014Z,20.50
2022-11-05T05:42:31.982Z,25.20
2022-11-05T05:43:31.974Z,22.80
2022-11-05T05:44:31.952Z,25.20
2022-11-05T05:45:31.955Z,19.90
2022-11-05T05:46:31.965Z,19.00
2022-11-05T05:47:31.932Z,23.40
2022-11-05T05:48:31.904Z,23.40
2022-11-05T05:49:31.893Z,20.00
2022-11-05T05:50:31.882Z,22.10
2022-11-05T05:51:31.861Z,20.90
2022-11-05T05:52:31.871Z,21.70
2022-11-05T05:53:31.851Z,22.00
2022-11-05T05:54:33.564Z,20.70
2022-11-05T05:55:31.811Z,19.50
2022-11-05T05:56:31.799Z,23.20
2022-11-05T05:57:31.793Z,20.20
2022-11-05T05:58:31.790Z,22.00
2022-11-05T05:59:31.769Z,22.10
2022-11-05T06:00:31.751Z,21.00
2022-11-05T06:01:31.894Z,18.90
2022-11-05T06:02:31.823Z,18.80
2022-11-05T06:03:31.721Z,20.20
2022-11-05T06:04:31.717Z,23.70
2022-11-05T06:05:31.695Z,20.70
2022-11-05T06:06:31.683Z,22.10
2022-11-05T06:07:36.878Z,20.50
2022-11-05T06:08:32.640Z,18.90
2022-11-05T06:09:31.629Z,19.30
2022-11-05T06:10:31.678Z,23.20
2022-11-05T06:11:31.611Z,19.30
2022-11-05T06:12:31.586Z,20.20
2022-11-05T06:13:31.587Z,25.00
2022-11-05T06:14:31.568Z,21.70
2022-11-05T06:15:35.628Z,23.20
2022-11-05T06:16:31.558Z,21.20
2022-11-05T06:17:31.527Z,21.10
2022-11-05T06:18:31.511Z,22.20
2022-11-05T06:19:31.504Z,22.80
2022-11-05T06:20:31.495Z,22.70
2022-11-05T06:21:31.508Z,24.90
2022-11-05T06:22:31.465Z,25.00
2022-11-05T06:23:31.443Z,24.50
2022-11-05T06:24:31.435Z,22.10
2022-11-05T06:25:31.414Z,21.30
2022-11-05T06:26:31.404Z,22.30
2022-11-05T06:27:31.414Z,19.40
2022-11-05T06:28:31.385Z,23.90
2022-11-05T06:29:31.373Z,26.00
2022-11-05T06:30:31.354Z,23.00
2022-11-05T06:31:31.343Z,23.00
2022-11-05T06:32:31.333Z,28.10
2022-11-05T06:33:31.339Z,21.70
2022-11-05T06:34:31.319Z,27.00
2022-11-05T06:35:31.292Z,23.50
2022-11-05T06:36:31.288Z,26.20
2022-11-05T06:37:31.272Z,23.10
2022-11-05T06:38:31.250Z,27.60
2022-11-05T06:39:31.260Z,28.70
2022-11-05T06:40:31.225Z,27.50
2022-11-05T06:41:31.211Z,28.50
2022-11-05T06:42:31.210Z,23.90
2022-11-05T06:43:31.189Z,26.70
2022-11-05T06:44:31.179Z,24.30
2022-11-05T06:45:31.179Z,22.40
2022-11-05T06:46:31.148Z,28.20
2022-11-05T06:47:31.129Z,34.30
2022-11-05T06:48:31.117Z,27.00
2022-11-05T06:49:31.097Z,26.30
2022-11-05T06:50:31.086Z,31.20
2022-11-05T06:51:31.095Z,29.50
2022-11-05T06:52:31.065Z,28.30
2022-11-05T06:53:31.065Z,34.10
2022-11-05T06:54:31.045Z,31.20
2022-11-05T06:55:31.016Z,29.40
2022-11-05T06:56:31.046Z,26.00
2022-11-05T06:57:31.004Z,31.60
2022-11-05T06:58:30.995Z,28.40
2022-11-05T06:59:30.965Z,31.20
2022-11-05T07:00:31.075Z,28.90
2022-11-05T07:01:31.094Z,32.50
2022-11-05T07:02:30.944Z,32.90
2022-11-05T07:03:30.923Z,35.70
2022-11-05T07:04:30.915Z,32.90
2022-11-05T07:05:30.894Z,32.80
2022-11-05T07:06:35.798Z,36.30
2022-11-05T07:07:31.864Z,36.10
2022-11-05T07:08:30.863Z,35.40
2022-11-05T07:09:30.853Z,37.10
2022-11-05T07:10:30.833Z,38.80
2022-11-05T07:11:30.813Z,31.60
2022-11-05T07:12:30.805Z,40.30
2022-11-05T07:13:30.788Z,38.00
2022-11-05T07:14:30.782Z,40.30
2022-11-05T07:15:30.765Z,41.40
2022-11-05T07:16:30.752Z,35.40
2022-11-05T07:17:30.747Z,38.00
2022-11-05T07:18:30.735Z,40.70
2022-11-05T07:19:30.721Z,35.80
2022-11-05T07:20:33.770Z,38.30
2022-11-05T07:21:30.691Z,41.40
2022-11-05T07:22:30.691Z,35.70
2022-11-05T07:23:30.660Z,40.30
2022-11-05T07:24:30.661Z,43.50
2022-11-05T07:25:30.633Z,41.60
2022-11-05T07:26:34.560Z,43.90
2022-11-05T07:27:30.621Z,40.40
2022-11-05T07:28:30.599Z,39.00
2022-11-05T07:29:30.589Z,39.70
2022-11-05T07:30:30.571Z,39.20
2022-11-05T07:31:30.558Z,39.20
2022-11-05T07:32:30.552Z,41.40
2022-11-05T07:33:36.124Z,39.30
2022-11-05T07:34:31.518Z,38.20
2022-11-05T07:35:30.499Z,31.60
2022-11-05T07:36:30.497Z,38.60
2022-11-05T07:37:30.477Z,41.20
2022-11-05T07:38:30.461Z,38.40
2022-11-05T07:39:30.457Z,42.10
2022-11-05T07:40:30.450Z,37.50
2022-11-05T07:41:30.426Z,39.50
2022-11-05T07:42:30.416Z,42.20
2022-11-05T07:43:30.403Z,34.60
2022-11-05T07:44:30.396Z,36.00
2022-11-05T07:45:30.369Z,36.30
2022-11-05T07:46:30.358Z,37.10
2022-11-05T07:47:30.355Z,38.00
2022-11-05T07:48:30.337Z,37.00
2022-11-05T07:49:30.346Z,34.70
2022-11-05T07:50:30.316Z,31.80
2022-11-05T07:51:30.294Z,34.70
2022-11-05T07:52:30.296Z,41.20
2022-11-05T07:53:30.263Z,41.20
2022-11-05T07:54:30.269Z,38.70
2022-11-05T07:55:30.235Z,35.70
2022-11-05T07:56:30.236Z,37.50
2022-11-05T07:57:30.212Z,39.60
2022-11-05T07:58:30.202Z,42.00
2022-11-05T07:59:30.193Z,35.00
2022-11-05T08:00:30.188Z,37.00
2022-11-05T08:01:30.387Z,37.90
2022-11-05T08:02:30.302Z,33.80
2022-11-05T08:03:30.242Z,35.90
2022-11-05T08:04:30.131Z,37.30
2022-11-05T08:05:30.119Z,37.90
2022-11-05T08:06:30.101Z,36.00
2022-11-05T08:07:30.091Z,33.50
2022-11-05T08:08:30.071Z,32.20
2022-11-05T08:09:30.060Z,31.70
2022-11-05T08:10:30.054Z,35.00
2022-11-05T08:11:30.030Z,39.60
2022-11-05T08:12:30.030Z,29.50
2022-11-05T08:13:29.999Z,39.50
2022-11-05T08:14:30.099Z,34.60
2022-11-05T08:15:29.980Z,36.50
2022-11-05T08:16:29.972Z,32.80
2022-11-05T08:17:29.949Z,32.20
2022-11-05T08:18:29.939Z,35.30
2022-11-05T08:19:29.934Z,27.50
2022-11-05T08:20:29.918Z,28.90
2022-11-05T08:21:29.889Z,32.40
2022-11-05T08:22:29.887Z,30.70
2022-11-05T08:23:29.876Z,25.70
2022-11-05T08:24:29.878Z,26.70
2022-11-05T08:25:29.847Z,31.10
2022-11-05T08:26:29.837Z,33.50
2022-11-05T08:27:29.819Z,27.30
2022-11-05T08:28:29.814Z,28.00
2022-11-05T08:29:29.806Z,29.60
2022-11-05T08:30:29.777Z,27.60
2022-11-05T08:31:29.767Z,26.40
2022-11-05T08:32:29.759Z,30.00
2022-11-05T08:33:29.748Z,28.50
2022-11-05T08:34:29.743Z,30.90
2022-11-05T08:35:29.713Z,29.00
2022-11-05T08:36:29.704Z,23.10
2022-11-05T08:37:29.696Z,29.60
2022-11-05T08:38:29.685Z,25.90
2022-11-05T08:39:29.683Z,26.10
2022-11-05T08:40:29.664Z,27.70
2022-11-05T08:41:29.633Z,28.60
2022-11-05T08:42:29.623Z,27.60
2022-11-05T08:43:29.613Z,25.10
2022-11-05T08:44:29.614Z,24.80
2022-11-05T08:45:29.582Z,28.40
2022-11-05T08:46:29.583Z,25.30
2022-11-05T08:47:29.557Z,24.60
2022-11-05T08:48:29.545Z,23.00
2022-11-05T08:49:29.552Z,27.70
2022-11-05T08:50:29.523Z,20.50
2022-11-05T08:51:29.502Z,17.50
2022-11-05T08:52:29.491Z,20.60
2022-11-05T08:53:29.472Z,17.90
2022-11-05T08:54:29.495Z,19.40
2022-11-05T08:55:29.449Z,22.30
2022-11-05T08:56:29.450Z,23.50
2022-11-05T08:57:29.421Z,21.50
2022-11-05T08:58:29.421Z,20.50
2022-11-05T08:59:29.411Z,21.10
2022-11-05T09:00:29.381Z,19.40
2022-11-05T09:01:29.481Z,16.40
2022-11-05T09:02:29.391Z,20.30
2022-11-05T09:03:29.348Z,15.20
2022-11-05T09:04:29.338Z,17.40
2022-11-05T09:05:29.341Z,18.80
2022-11-05T09:06:29.309Z,25.10
2022-11-05T09:07:29.299Z,19.80
2022-11-05T09:08:29.295Z,17.30
2022-11-05T09:09:29.266Z,18.70
2022-11-05T09:10:29.272Z,20.30
2022-11-05T09:11:43.302Z,20.10
2022-11-05T09:12:30.237Z,24.80
2022-11-05T09:13:29.216Z,15.70
2022-11-05T09:14:29.197Z,17.50
2022-11-05T09:15:29.195Z,13.00
2022-11-05T09:16:29.195Z,20.70
2022-11-05T09:17:29.176Z,17.00
2022-11-05T09:18:29.145Z,19.50
2022-11-05T09:19:29.134Z,15.20
2022-11-05T09:20:29.134Z,15.30
2022-11-05T09:21:29.104Z,14.60
2022-11-05T09:22:29.098Z,15.10
2022-11-05T09:23:29.073Z,13.20
2022-11-05T09:24:29.075Z,14.90
2022-11-05T09:25:29.063Z,14.50
2022-11-05T09:26:29.048Z,13.10
2022-11-05T09:27:29.026Z,19.80
2022-11-05T09:28:29.024Z,12.70
2022-11-05T09:29:29.003Z,15.00
2022-11-05T09:30:29.002Z,15.90
2022-11-05T09:31:28.983Z,14.20
2022-11-05T09:32:28.962Z,13.10
2022-11-05T09:33:28.953Z,11.30
2022-11-05T09:34:28.952Z,19.50
2022-11-05T09:35:28.940Z,11.90
2022-11-05T09:36:28.920Z,9.50
2022-11-05T09:37:28.893Z,11.40
2022-11-05T09:38:28.891Z,10.40
2022-11-05T09:39:28.878Z,8.20
2022-11-05T09:40:28.872Z,12.10
2022-11-05T09:41:28.841Z,12.10
2022-11-05T09:42:28.840Z,9.90
2022-11-05T09:43:31.752Z,11.70
2022-11-05T09:44:28.812Z,8.40
2022-11-05T09:45:28.802Z,12.90
2022-11-05T09:46:28.779Z,10.30
2022-11-05T09:47:28.769Z,13.90
2022-11-05T09:48:28.762Z,9.10
2022-11-05T09:49:28.742Z,10.60
2022-11-05T09:50:28.738Z,10.90
2022-11-05T09:51:28.716Z,8.90
2022-11-05T09:52:28.699Z,9.80
2022-11-05T09:53:28.700Z,8.60
2022-11-05T09:54:28.677Z,6.40
2022-11-05T09:55:28.679Z,12.50
2022-11-05T09:56:28.659Z,11.00
2022-11-05T09:57:28.637Z,7.70
2022-11-05T09:58:29.077Z,11.90
2022-11-05T09:59:28.612Z,11.60
2022-11-05T10:00:28.608Z,8.00
2022-11-05T10:01:28.709Z,7.30
2022-11-05T10:02:28.668Z,9.80
2022-11-05T10:03:28.571Z,9.40
2022-11-05T10:04:28.548Z,11.40
2022-11-05T10:05:28.616Z,9.20
2022-11-05T10:06:28.516Z,13.80
2022-11-05T10:07:28.527Z,10.30
2022-11-05T10:08:28.495Z,8.60
2022-11-05T10:09:28.488Z,11.40
2022-11-05T10:10:28.494Z,7.50
2022-11-05T10:11:28.455Z,13.00
2022-11-05T10:12:28.435Z,9.30
2022-11-05T10:13:28.422Z,8.60
2022-11-05T10:14:28.413Z,7.00
2022-11-05T10:15:28.404Z,10.00
2022-11-05T10:16:28.385Z,9.50
2022-11-05T10:17:28.387Z,7.40
2022-11-05T10:18:28.367Z,6.50
2022-11-05T10:19:28.343Z,7.30
2022-11-05T10:20:28.356Z,10.10
2022-11-05T10:21:59.454Z,11.70
2022-11-05T10:22:29.304Z,4.60
2022-11-05T10:23:28.294Z,7.60
2022-11-05T10:24:28.297Z,8.30
2022-11-05T10:25:28.273Z,10.40
2022-11-05T10:26:28.263Z,4.60
2022-11-05T10:27:28.234Z,8.90
2022-11-05T10:28:28.231Z,5.60
2022-11-05T10:29:28.215Z,6.20
2022-11-05T10:30:28.215Z,7.20
2022-11-05T10:31:31.559Z,6.70
2022-11-05T10:32:29.191Z,8.80
2022-11-05T10:33:28.161Z,5.40
2022-11-05T10:34:28.159Z,6.50
2022-11-05T10:35:28.152Z,8.90
2022-11-05T10:36:28.113Z,6.50
2022-11-05T10:37:28.101Z,6.40
2022-11-05T10:38:28.096Z,7.30
2022-11-05T10:39:28.090Z,6.90
2022-11-05T10:40:28.088Z,8.60
2022-11-05T10:41:28.051Z,5.80
2022-11-05T10:42:28.050Z,10.20
2022-11-05T10:43:28.021Z,6.70
2022-11-05T10:44:28.018Z,6.60
2022-11-05T10:45:28.009Z,5.50
2022-11-05T10:46:27.980Z,8.50
2022-11-05T10:47:27.980Z,11.80
2022-11-05T10:48:27.960Z,9.60
2022-11-05T10:49:27.948Z,6.00
2022-11-05T10:50:27.960Z,9.20
2022-11-05T10:51:27.931Z,7.50
2022-11-05T10:52:27.929Z,5.20
2022-11-05T10:53:27.898Z,5.50
2022-11-05T10:54:27.888Z,6.10
2022-11-05T10:55:27.888Z,5.60
2022-11-05T10:56:27.931Z,7.50
2022-11-05T10:57:27.848Z,4.90
2022-11-05T10:58:27.828Z,5.40
2022-11-05T10:59:27.817Z,6.10
2022-11-05T11:00:27.829Z,5.50
2022-11-05T11:01:27.875Z,4.50
2022-11-05T11:02:27.922Z,5.00
2022-11-05T11:03:27.767Z,5.10
2022-11-05T11:04:27.766Z,5.00
2022-11-05T11:05:27.749Z,5.10
2022-11-05T11:06:27.738Z,8.90
2022-11-05T11:07:27.791Z,12.50
2022-11-05T11:08:27.798Z,6.50
2022-11-05T11:09:27.773Z,7.70
2022-11-05T11:10:27.817Z,5.60
2022-11-05T11:11:27.659Z,6.30
2022-11-05T11:12:27.651Z,8.70
2022-11-05T11:13:27.639Z,6.80
2022-11-05T11:14:27.646Z,6.10
2022-11-05T11:15:28.326Z,8.20
2022-11-05T11:16:27.589Z,4.60
2022-11-05T11:17:27.586Z,7.90
2022-11-05T11:18:27.565Z,5.80
2022-11-05T11:19:27.546Z,7.10
2022-11-05T11:20:27.561Z,3.30
2022-11-05T11:21:27.515Z,6.40
2022-11-05T11:22:27.516Z,6.90
2022-11-05T11:23:27.495Z,5.10
2022-11-05T11:24:32.482Z,5.40
2022-11-05T11:25:28.483Z,6.10
2022-11-05T11:26:27.466Z,7.30
2022-11-05T11:27:27.454Z,7.80
2022-11-05T11:28:27.444Z,6.60
2022-11-05T11:29:27.424Z,6.90
2022-11-05T11:30:27.423Z,8.60
2022-11-05T11:31:27.401Z,4.90
2022-11-05T11:32:27.384Z,7.60
2022-11-05T11:33:27.371Z,6.90
2022-11-05T11:34:27.362Z,4.40
2022-11-05T11:35:27.351Z,7.10
2022-11-05T11:36:27.340Z,4.70
2022-11-05T11:37:27.315Z,5.50
2022-11-05T11:38:27.311Z,8.30
2022-11-05T11:39:27.282Z,10.90
2022-11-05T11:40:27.383Z,6.90
2022-11-05T11:41:27.272Z,6.70
2022-11-05T11:42:27.265Z,7.80
2022-11-05T11:43:27.249Z,9.00
2022-11-05T11:44:27.268Z,6.90
2022-11-05T11:45:27.221Z,7.60
2022-11-05T11:46:27.209Z,5.00
2022-11-05T11:47:27.183Z,5.50
2022-11-05T11:48:27.184Z,9.50
2022-11-05T11:49:27.151Z,8.30
2022-11-05T11:50:27.152Z,14.20
2022-11-05T11:51:27.139Z,7.80
2022-11-05T11:52:27.129Z,8.40
2022-11-05T11:53:27.108Z,7.20
2022-11-05T11:54:29.216Z,6.30
2022-11-05T11:55:27.094Z,6.70
2022-11-05T11:56:27.074Z,7.70
2022-11-05T11:57:27.049Z,6.90
2022-11-05T11:58:27.038Z,8.70
2022-11-05T11:59:53.784Z,7.60
2022-11-05T12:00:28.019Z,8.10
2022-11-05T12:01:27.018Z,8.90
2022-11-05T12:02:27.015Z,10.60
2022-11-05T12:03:27.033Z,10.40
2022-11-05T12:04:26.957Z,7.70
2022-11-05T12:05:26.958Z,10.70
2022-11-05T12:06:26.929Z,8.70
2022-11-05T12:07:26.920Z,9.00
2022-11-05T12:08:26.906Z,11.50
2022-11-05T12:09:26.889Z,8.40
2022-11-05T12:10:26.896Z,7.60
2022-11-05T12:11:26.866Z,6.10
2022-11-05T12:12:26.865Z,8.40
2022-11-05T12:13:26.836Z,6.90
2022-11-05T12:14:26.846Z,9.10
2022-11-05T12:15:26.836Z,11.20
2022-11-05T12:16:26.816Z,9.10
2022-11-05T12:17:26.784Z,7.00
2022-11-05T12:18:26.785Z,7.30
2022-11-05T12:19:26.759Z,9.90
2022-11-05T12:20:26.765Z,10.50
2022-11-05T12:21:48.038Z,7.20
2022-11-05T12:22:27.715Z,9.10
2022-11-05T12:23:26.717Z,9.20
2022-11-05T12:24:26.694Z,10.80
2022-11-05T12:25:26.688Z,12.20
2022-11-05T12:26:26.679Z,7.50
2022-11-05T12:27:26.645Z,8.20
2022-11-05T12:28:26.634Z,6.40
2022-11-05T12:29:29.049Z,10.80
2022-11-05T12:30:27.627Z,11.10
2022-11-05T12:31:26.594Z,9.20
2022-11-05T12:32:26.614Z,9.20
2022-11-05T12:33:26.575Z,9.70
2022-11-05T12:34:26.564Z,7.50
2022-11-05T12:35:26.563Z,12.20
2022-11-05T12:36:26.524Z,7.10
2022-11-05T12:37:26.522Z,12.70
2022-11-05T12:38:26.512Z,10.80
2022-11-05T12:39:26.502Z,10.50
2022-11-05T12:40:26.500Z,8.40
2022-11-05T12:41:26.470Z,8.50
2022-11-05T12:42:26.453Z,8.50
2022-11-05T12:43:26.440Z,9.20
2022-11-05T12:44:26.421Z,10.20
2022-11-05T12:45:26.422Z,10.70
2022-11-05T12:46:26.392Z,9.20
2022-11-05T12:47:26.391Z,9.90
2022-11-05T12:48:29.381Z,10.80
2022-11-05T12:49:27.361Z,7.30
2022-11-05T12:50:26.351Z,9.50
2022-11-05T12:51:26.341Z,7.20
2022-11-05T12:52:26.319Z,12.50
2022-11-05T12:53:26.299Z,12.10
2022-11-05T12:54:26.299Z,11.90
2022-11-05T12:55:26.300Z,13.80
2022-11-05T12:56:26.276Z,9.90
2022-11-05T12:57:26.249Z,7.50